»·PEaware :: N40SF KSMX-KOXR

N40SF :: KSMX-KOXR

FLIGHT INFORMATION

Flight Status: Arrived
Operator: Privately registered:
United States
More flights under this callsign
Pilot: John D. (33176)
Aircraft: PIPER PA-28 CHEROKEE ARCHER
(P28A)
More flights by this aircraft type
Origin: KSMX Santa Maria Pub/Capt Hancock
United States
Destination: KOXR Oxnard
United States
More flights between these airports :: More routes between these airports
Route:
File this flight plan on PilotEdge
Remarks:
Altitude:
(Current/Filed)
7,500ft
Speed:
(Current/Filed)
115kts
Departed: 15-Jan-21 05:23 PM
Arrived: 15-Jan-21 06:05 PM
Distance/Time
Traveled:
75nm/0:42
Distance/Time
To Go:
Arrived

Flight Plot

Page will automatically refresh every two minutes.

Flight plan parsing failed; only flown route is shown


Map Options




Map Legend


Flown Route
Filed Route
Departure Airport
Arrival Airport
Navaid (VOR, NDB)
Fix

Horizontal Profiles

Position Reports

Time Latitude Longitude Heading Altitude Ground
Speed
15-Jan-21 17:10 34.896952 -120.446158 0 264ft 0kts
15-Jan-21 17:11 34.896952 -120.446158 273 264ft 0kts
15-Jan-21 17:12 34.896952 -120.446158 273 264ft 0kts
15-Jan-21 17:13 34.896952 -120.446158 273 264ft 0kts
15-Jan-21 17:14 34.896952 -120.446158 273 264ft 0kts
15-Jan-21 17:15 34.896952 -120.446158 273 264ft 0kts
15-Jan-21 17:16 34.896952 -120.446158 273 264ft 0kts
15-Jan-21 17:17 34.896952 -120.446158 273 264ft 0kts
15-Jan-21 17:18 34.896942 -120.447294 244 264ft 13kts
15-Jan-21 17:19 34.893950 -120.445640 182 264ft 0kts
15-Jan-21 17:20 34.893950 -120.445640 182 264ft 0kts
15-Jan-21 17:21 34.894189 -120.447497 314 264ft 36kts
15-Jan-21 17:22 34.908294 -120.467374 311 1496ft 77kts
15-Jan-21 17:23 34.923280 -120.487598 310 2784ft 83kts
15-Jan-21 17:24 34.922853 -120.475760 134 4059ft 80kts
15-Jan-21 17:25 34.904815 -120.456662 129 5221ft 85kts
15-Jan-21 17:26 34.888073 -120.428577 122 6035ft 107kts
15-Jan-21 17:27 34.870368 -120.397517 121 6861ft 108kts
15-Jan-21 17:29 34.853301 -120.366909 121 7497ft 119kts
15-Jan-21 17:30 34.832693 -120.329948 122 7499ft 132kts
15-Jan-21 17:31 34.811270 -120.291401 122 7499ft 132kts
15-Jan-21 17:32 34.789791 -120.252717 122 7499ft 132kts
15-Jan-21 17:33 34.768993 -120.215280 122 7499ft 132kts
15-Jan-21 17:34 34.748426 -120.178295 122 7499ft 132kts
15-Jan-21 17:35 34.727908 -120.140802 122 7499ft 132kts
15-Jan-21 17:36 34.706742 -120.103918 123 7499ft 132kts
15-Jan-21 17:37 34.684114 -120.066411 124 7499ft 132kts
15-Jan-21 17:38 34.661626 -120.030929 126 7499ft 132kts
15-Jan-21 17:39 34.637720 -119.995004 127 7499ft 132kts
15-Jan-21 17:40 34.613778 -119.960726 128 7499ft 132kts
15-Jan-21 17:41 34.591542 -119.925740 95 7496ft 130kts
15-Jan-21 17:42 34.580988 -119.883782 109 7499ft 131kts
15-Jan-21 17:42 34.569759 -119.849474 110 7499ft 131kts
15-Jan-21 17:44 34.552835 -119.801210 111 7499ft 131kts
15-Jan-21 17:45 34.537350 -119.760110 113 7499ft 131kts
15-Jan-21 17:46 34.511504 -119.728200 150 7499ft 134kts
15-Jan-21 17:47 34.483403 -119.699125 129 7499ft 132kts
15-Jan-21 17:47 34.464194 -119.670251 123 7499ft 132kts
15-Jan-21 17:48 34.443130 -119.633670 122 7499ft 132kts
15-Jan-21 17:49 34.422352 -119.596927 122 7499ft 132kts
15-Jan-21 17:50 34.401131 -119.559422 122 7499ft 132kts
15-Jan-21 17:51 34.380373 -119.522940 122 7074ft 127kts
15-Jan-21 17:52 34.359245 -119.485670 122 6543ft 127kts
15-Jan-21 17:53 34.338637 -119.449362 122 6026ft 127kts
15-Jan-21 17:54 34.317425 -119.412028 122 5495ft 127kts
15-Jan-21 17:55 34.296227 -119.374758 122 4964ft 127kts
15-Jan-21 17:56 34.276007 -119.339407 123 3978ft 113kts
15-Jan-21 17:57 34.257675 -119.308436 126 3139ft 102kts
15-Jan-21 17:58 34.238624 -119.279716 123 2319ft 102kts
15-Jan-21 17:59 34.222714 -119.249510 118 1559ft 101kts
15-Jan-21 18:00 34.213652 -119.217639 88 1095ft 97kts
15-Jan-21 18:01 34.212258 -119.183918 89 885ft 96kts
15-Jan-21 18:02 34.200019 -119.170414 265 544ft 77kts
15-Jan-21 18:03 34.200661 -119.194466 271 169ft 65kts
15-Jan-21 18:04 34.200323 -119.207303 143 36ft 13kts
15-Jan-21 18:05 34.199899 -119.207224 198 36ft 0kts
15-Jan-21 18:06 34.199802 -119.205841 88 38ft 16kts
15-Jan-21 18:07 34.199036 -119.199230 95 43ft 18kts

Navigation Log

Ident Type
Flight plan parsing failed, navigation log unavailable